Time;durP1;ratioP1;P1;durP2;ratioP2;P2;SDS_P1;SDS_P2;PMS_P1;PMS_P2;Temp;Humidity;BMP_temperature;BMP_pressure;BME280_temperature;BME280_humidity;BME280_pressure;Samples;Min_cycle;Max_cycle;Signal;HPM_P1;HPM_P2
2022/05/16 00:00:09;;;;;;;4.53;2.65;;;;;;;;;;520911;28;1340;-90
2022/05/16 00:00:27;;;;;;;4.43;2.60;;;;;;;;;;523528;28;1377;-89
2022/05/16 00:00:43;;;;;;;4.63;2.67;;;;;;;;;;523206;28;1666;-89
2022/05/16 00:00:59;;;;;;;4.78;2.60;;;;;;;;;;521609;28;1396;-90
2022/05/16 00:01:15;;;;;;;4.97;2.47;;;;;;;;;;523029;28;1286;-90
2022/05/16 00:01:30;;;;;;;5.90;2.60;;;;;;;;;;519509;28;1549;-90
2022/05/16 00:01:45;;;;;;;5.00;2.60;;;;;;;;;;520566;28;1591;-90
2022/05/16 00:02:06;;;;;;;3.70;2.40;;;;;;;;;;519905;28;1410;-88
2022/05/16 00:02:21;;;;;;;5.30;2.60;;;;;;;;;;520024;28;1557;-89
2022/05/16 00:02:38;;;;;;;5.67;2.70;;;;;;;;;;520784;28;1419;-90
2022/05/16 00:02:55;;;;;;;4.32;2.70;;;;;;;;;;522809;28;1556;-90
2022/05/16 00:03:10;;;;;;;4.72;2.55;;;;;;;;;;525285;28;1710;-91
2022/05/16 00:03:26;;;;;;;5.10;2.73;;;;;;;;;;525819;28;1461;-90
2022/05/16 00:03:42;;;;;;;4.47;2.60;;;;;;;;;;522241;28;1694;-90
2022/05/16 00:03:57;;;;;;;5.03;2.47;;;;;;;;;;523033;28;1411;-89
2022/05/16 00:04:12;;;;;;;6.30;2.60;;;;;;;;;;523864;28;1669;-89
2022/05/16 00:04:28;;;;;;;5.80;2.57;;;;;;;;;;522089;28;1208;-90
2022/05/16 00:04:45;;;;;;;4.97;2.50;;;;;;;;;;522175;28;1419;-88
2022/05/16 00:05:01;;;;;;;4.00;2.42;;;;;;;;;;520423;28;1255;-90
2022/05/16 00:05:16;;;;;;;4.93;2.50;;;;;;;;;;522624;28;1472;-88
2022/05/16 00:05:33;;;;;;;4.85;2.60;;;;;;;;;;523301;28;922;-90
2022/05/16 00:05:48;;;;;;;5.05;2.70;;;;;;;;;;521464;28;1568;-90
2022/05/16 00:06:04;;;;;;;5.25;2.60;;;;;;;;;;523571;28;1618;-90
2022/05/16 00:06:19;;;;;;;5.73;2.60;;;;;;;;;;524029;28;1164;-91
2022/05/16 00:06:35;;;;;;;6.18;2.80;;;;;;;;;;521458;28;1575;-89
2022/05/16 00:06:50;;;;;;;5.80;2.90;;;;;;;;;;523869;28;1235;-90
2022/05/16 00:07:06;;;;;;;6.07;2.97;;;;;;;;;;524164;28;1551;-90
2022/05/16 00:07:21;;;;;;;6.60;2.97;;;;;;;;;;523758;28;1442;-90
2022/05/16 00:07:37;;;;;;;5.65;2.80;;;;;;;;;;524122;28;1111;-90
2022/05/16 00:07:53;;;;;;;3.83;2.70;;;;;;;;;;522710;28;1513;-89
2022/05/16 00:08:08;;;;;;;3.65;2.53;;;;;;;;;;520815;28;1290;-89
2022/05/16 00:08:24;;;;;;;3.72;2.50;;;;;;;;;;521905;28;1688;-89
2022/05/16 00:08:39;;;;;;;3.63;2.50;;;;;;;;;;521939;28;1331;-89
2022/05/16 00:08:55;;;;;;;4.00;2.65;;;;;;;;;;519686;28;1523;-90
2022/05/16 00:09:10;;;;;;;4.50;2.80;;;;;;;;;;521139;28;1222;-90
2022/05/16 00:09:26;;;;;;;5.37;2.60;;;;;;;;;;519796;28;1637;-90
2022/05/16 00:09:41;;;;;;;5.50;2.60;;;;;;;;;;519940;28;1032;-90
2022/05/16 00:09:57;;;;;;;4.60;2.65;;;;;;;;;;519754;28;1565;-89
2022/05/16 00:10:12;;;;;;;4.67;2.90;;;;;;;;;;520015;28;1264;-89
2022/05/16 00:10:28;;;;;;;4.72;2.95;;;;;;;;;;520091;28;1310;-90
2022/05/16 00:10:46;;;;;;;4.00;2.73;;;;;;;;;;519626;28;1490;-90
2022/05/16 00:11:02;;;;;;;4.60;2.80;;;;;;;;;;521989;28;1328;-89
2022/05/16 00:11:18;;;;;;;4.90;2.90;;;;;;;;;;519705;28;1608;-89
2022/05/16 00:11:34;;;;;;;4.90;2.80;;;;;;;;;;519903;28;1150;-90
2022/05/16 00:11:49;;;;;;;4.47;2.80;;;;;;;;;;519846;28;932;-88
2022/05/16 00:12:07;;;;;;;3.85;2.65;;;;;;;;;;521874;28;1174;-90
2022/05/16 00:12:22;;;;;;;4.60;2.60;;;;;;;;;;521791;28;1314;-90
2022/05/16 00:12:38;;;;;;;5.00;2.72;;;;;;;;;;519175;28;1576;-90
2022/05/16 00:12:59;;;;;;;4.22;2.80;;;;;;;;;;517698;28;1644;-89
2022/05/16 00:13:14;;;;;;;5.78;3.08;;;;;;;;;;517820;28;1611;-89
2022/05/16 00:13:30;;;;;;;5.83;2.90;;;;;;;;;;518884;28;1734;-90
2022/05/16 00:13:45;;;;;;;5.70;2.70;;;;;;;;;;519529;28;1462;-90
2022/05/16 00:14:00;;;;;;;6.25;2.90;;;;;;;;;;519968;28;1454;-90
2022/05/16 00:14:16;;;;;;;6.57;2.97;;;;;;;;;;523047;28;781;-89
2022/05/16 00:14:31;;;;;;;6.83;2.80;;;;;;;;;;521675;28;1520;-90
2022/05/16 00:14:47;;;;;;;6.10;2.80;;;;;;;;;;522607;28;1359;-89
2022/05/16 00:15:05;;;;;;;5.53;2.90;;;;;;;;;;522345;28;1512;-91
2022/05/16 00:15:23;;;;;;;5.38;3.03;;;;;;;;;;521976;28;1353;-90
2022/05/16 00:15:38;;;;;;;6.60;3.10;;;;;;;;;;521672;28;1528;-89
2022/05/16 00:15:55;;;;;;;5.95;2.75;;;;;;;;;;523668;28;1369;-90
2022/05/16 00:16:11;;;;;;;5.28;2.70;;;;;;;;;;523124;28;1524;-90
2022/05/16 00:16:26;;;;;;;4.73;2.80;;;;;;;;;;522136;28;1352;-90
2022/05/16 00:16:42;;;;;;;4.75;2.70;;;;;;;;;;522302;28;1303;-89
2022/05/16 00:16:57;;;;;;;5.60;2.83;;;;;;;;;;521669;28;1645;-90
2022/05/16 00:17:16;;;;;;;6.32;2.80;;;;;;;;;;519932;28;1379;-89
2022/05/16 00:17:31;;;;;;;7.15;3.00;;;;;;;;;;522700;28;1439;-89
2022/05/16 00:17:47;;;;;;;6.13;3.00;;;;;;;;;;523846;28;1559;-89
2022/05/16 00:18:04;;;;;;;5.10;2.80;;;;;;;;;;523569;28;993;-89
2022/05/16 00:18:19;;;;;;;5.65;2.90;;;;;;;;;;522064;28;1328;-89
2022/05/16 00:18:34;;;;;;;5.17;2.80;;;;;;;;;;520203;28;1341;-90
2022/05/16 00:18:51;;;;;;;5.63;2.80;;;;;;;;;;519673;28;1580;-91
2022/05/16 00:19:06;;;;;;;5.85;3.00;;;;;;;;;;519493;28;1394;-91
2022/05/16 00:19:22;;;;;;;7.30;3.15;;;;;;;;;;520720;28;864;-90
2022/05/16 00:19:37;;;;;;;7.60;3.10;;;;;;;;;;519603;28;1925;-90
2022/05/16 00:19:53;;;;;;;5.37;2.83;;;;;;;;;;521486;28;1434;-88
2022/05/16 00:20:09;;;;;;;5.05;2.83;;;;;;;;;;522015;28;1181;-90
2022/05/16 00:20:24;;;;;;;5.03;2.90;;;;;;;;;;522554;28;1571;-91
2022/05/16 00:20:42;;;;;;;5.57;2.80;;;;;;;;;;524401;28;1065;-90
2022/05/16 00:20:58;;;;;;;4.38;2.65;;;;;;;;;;524205;28;1517;-91
2022/05/16 00:21:13;;;;;;;3.73;2.50;;;;;;;;;;523717;28;1393;-90
2022/05/16 00:21:29;;;;;;;4.55;2.70;;;;;;;;;;522007;28;1614;-90
2022/05/16 00:21:44;;;;;;;4.60;2.90;;;;;;;;;;522234;28;1148;-90
2022/05/16 00:22:00;;;;;;;4.43;2.80;;;;;;;;;;522495;28;1506;-90
2022/05/16 00:22:15;;;;;;;7.47;3.03;;;;;;;;;;524814;28;1389;-90
2022/05/16 00:22:31;;;;;;;7.97;3.07;;;;;;;;;;524281;28;1279;-90
2022/05/16 00:22:47;;;;;;;4.95;2.83;;;;;;;;;;521875;28;1438;-90
2022/05/16 00:23:02;;;;;;;5.07;2.90;;;;;;;;;;522302;28;1039;-90
2022/05/16 00:23:18;;;;;;;5.63;2.95;;;;;;;;;;523751;28;1555;-90
2022/05/16 00:23:33;;;;;;;4.20;2.73;;;;;;;;;;525436;28;1348;-89
2022/05/16 00:23:48;;;;;;;5.27;2.77;;;;;;;;;;526163;28;1464;-90
2022/05/16 00:24:05;;;;;;;6.18;2.83;;;;;;;;;;525743;28;1409;-90
2022/05/16 00:24:24;;;;;;;5.50;2.90;;;;;;;;;;522726;28;1397;-90
2022/05/16 00:24:43;;;;;;;5.30;3.10;;;;;;;;;;522840;28;828;-89
2022/05/16 00:24:58;;;;;;;5.03;2.92;;;;;;;;;;524303;28;1019;-89
2022/05/16 00:25:18;;;;;;;5.75;2.90;;;;;;;;;;524374;28;970;-89
2022/05/16 00:25:33;;;;;;;6.70;2.92;;;;;;;;;;525542;28;1477;-90
2022/05/16 00:25:49;;;;;;;6.70;2.80;;;;;;;;;;526378;28;1145;-91
2022/05/16 00:26:04;;;;;;;6.15;2.80;;;;;;;;;;526113;28;1163;-90
2022/05/16 00:26:19;;;;;;;6.07;2.73;;;;;;;;;;526428;28;805;-91
2022/05/16 00:26:35;;;;;;;6.28;2.75;;;;;;;;;;525849;28;1435;-90
2022/05/16 00:26:50;;;;;;;4.87;2.70;;;;;;;;;;524043;28;1381;-90
2022/05/16 00:27:06;;;;;;;5.40;2.70;;;;;;;;;;523950;28;1559;-88
2022/05/16 00:27:21;;;;;;;6.07;2.90;;;;;;;;;;521770;28;1768;-90
2022/05/16 00:27:37;;;;;;;4.87;2.90;;;;;;;;;;520061;28;1489;-90
2022/05/16 00:27:52;;;;;;;3.55;2.63;;;;;;;;;;520205;28;1258;-90
2022/05/16 00:28:10;;;;;;;3.77;2.60;;;;;;;;;;519882;28;1233;-90
2022/05/16 00:28:26;;;;;;;4.65;2.70;;;;;;;;;;520739;28;971;-90
2022/05/16 00:28:41;;;;;;;5.47;2.80;;;;;;;;;;521996;28;1602;-90
2022/05/16 00:28:57;;;;;;;5.17;2.80;;;;;;;;;;521855;28;1155;-89
2022/05/16 00:29:12;;;;;;;4.28;2.75;;;;;;;;;;523475;28;1166;-90
2022/05/16 00:29:28;;;;;;;4.97;2.73;;;;;;;;;;524134;28;1516;-90
2022/05/16 00:29:43;;;;;;;5.28;2.63;;;;;;;;;;522127;28;1262;-90
2022/05/16 00:29:58;;;;;;;5.90;2.80;;;;;;;;;;524113;28;1176;-91
2022/05/16 00:30:17;;;;;;;5.75;2.72;;;;;;;;;;524244;28;1392;-90
2022/05/16 00:30:32;;;;;;;6.18;2.63;;;;;;;;;;524172;28;1330;-91
2022/05/16 00:30:48;;;;;;;7.10;2.80;;;;;;;;;;521592;28;1564;-90
2022/05/16 00:31:04;;;;;;;4.80;2.67;;;;;;;;;;522154;28;1077;-89
2022/05/16 00:31:20;;;;;;;4.03;2.60;;;;;;;;;;521972;28;1362;-90
2022/05/16 00:31:35;;;;;;;3.92;2.40;;;;;;;;;;518966;28;1534;-90
2022/05/16 00:31:53;;;;;;;4.27;2.43;;;;;;;;;;521355;28;1489;-90
2022/05/16 00:32:10;;;;;;;5.05;2.70;;;;;;;;;;521383;28;1503;-90
2022/05/16 00:32:25;;;;;;;4.32;2.78;;;;;;;;;;521431;28;1568;-90
2022/05/16 00:32:41;;;;;;;4.73;2.80;;;;;;;;;;524088;28;1331;-90
2022/05/16 00:32:56;;;;;;;4.65;2.75;;;;;;;;;;524328;28;915;-89
2022/05/16 00:33:12;;;;;;;3.78;2.60;;;;;;;;;;524330;28;1451;-91
2022/05/16 00:33:27;;;;;;;3.20;2.50;;;;;;;;;;524488;28;1676;-90
2022/05/16 00:33:43;;;;;;;4.17;2.50;;;;;;;;;;525959;28;1573;-89
2022/05/16 00:34:01;;;;;;;5.47;2.65;;;;;;;;;;524415;28;1256;-90
2022/05/16 00:34:17;;;;;;;6.35;2.80;;;;;;;;;;524299;28;1222;-89
2022/05/16 00:34:32;;;;;;;5.65;2.70;;;;;;;;;;523837;28;1448;-90
2022/05/16 00:34:48;;;;;;;5.30;2.83;;;;;;;;;;524147;28;1657;-90
2022/05/16 00:35:05;;;;;;;5.00;2.92;;;;;;;;;;526626;28;899;-90
2022/05/16 00:35:24;;;;;;;4.63;2.80;;;;;;;;;;526626;28;1617;-90
2022/05/16 00:35:39;;;;;;;4.68;2.70;;;;;;;;;;524955;28;1444;-91
2022/05/16 00:35:54;;;;;;;4.33;2.47;;;;;;;;;;525707;28;1438;-90
2022/05/16 00:36:10;;;;;;;4.60;2.53;;;;;;;;;;526046;28;1348;-91
2022/05/16 00:36:25;;;;;;;5.27;2.77;;;;;;;;;;526867;28;1641;-91
2022/05/16 00:36:47;;;;;;;5.10;2.90;;;;;;;;;;526078;28;1171;-89
2022/05/16 00:37:03;;;;;;;5.32;2.90;;;;;;;;;;523783;28;1488;-89
2022/05/16 00:37:18;;;;;;;4.78;2.70;;;;;;;;;;524231;28;832;-89
2022/05/16 00:37:33;;;;;;;4.40;2.60;;;;;;;;;;524481;28;1456;-90
2022/05/16 00:37:49;;;;;;;4.70;2.73;;;;;;;;;;522383;28;1461;-90
2022/05/16 00:38:05;;;;;;;4.32;2.70;;;;;;;;;;522663;28;1356;-91
2022/05/16 00:38:20;;;;;;;4.60;2.80;;;;;;;;;;519420;28;1567;-91
2022/05/16 00:38:36;;;;;;;5.20;2.87;;;;;;;;;;520878;28;844;-90
2022/05/16 00:38:54;;;;;;;4.67;2.87;;;;;;;;;;520231;28;1516;-91
2022/05/16 00:39:09;;;;;;;5.00;2.92;;;;;;;;;;519690;28;1469;-90
2022/05/16 00:39:25;;;;;;;6.28;3.05;;;;;;;;;;520439;28;1974;-90
2022/05/16 00:39:40;;;;;;;5.70;2.90;;;;;;;;;;520918;28;1172;-90
2022/05/16 00:39:56;;;;;;;4.60;2.77;;;;;;;;;;522427;28;1552;-90
2022/05/16 00:40:12;;;;;;;4.72;2.60;;;;;;;;;;523962;28;1317;-90
2022/05/16 00:40:28;;;;;;;4.85;2.72;;;;;;;;;;523592;28;1527;-90
2022/05/16 00:40:43;;;;;;;4.57;3.00;;;;;;;;;;521298;28;1653;-90
2022/05/16 00:41:00;;;;;;;3.70;2.63;;;;;;;;;;521070;28;1594;-89
2022/05/16 00:41:16;;;;;;;4.18;2.50;;;;;;;;;;522447;28;1524;-90
2022/05/16 00:41:31;;;;;;;5.50;2.83;;;;;;;;;;523557;28;1814;-88
2022/05/16 00:41:48;;;;;;;5.43;2.90;;;;;;;;;;523068;28;1266;-90
2022/05/16 00:42:04;;;;;;;5.20;2.75;;;;;;;;;;524776;28;1294;-90
2022/05/16 00:42:19;;;;;;;4.95;2.72;;;;;;;;;;524225;28;1523;-90
2022/05/16 00:42:35;;;;;;;5.57;2.73;;;;;;;;;;524059;28;1285;-90
2022/05/16 00:42:58;;;;;;;6.18;2.95;;;;;;;;;;521939;28;1377;-90
2022/05/16 00:43:21;;;;;;;7.07;2.80;;;;;;;;;;524139;28;922;-89
2022/05/16 00:43:47;;;;;;;4.90;2.80;;;;;;;;;;523975;28;1326;-90
2022/05/16 00:44:03;;;;;;;5.57;2.92;;;;;;;;;;525721;28;1358;-91
2022/05/16 00:44:20;;;;;;;4.63;2.63;;;;;;;;;;523971;28;1511;-89
2022/05/16 00:44:36;;;;;;;4.32;2.50;;;;;;;;;;523904;28;1162;-91
2022/05/16 00:44:51;;;;;;;4.28;2.67;;;;;;;;;;523418;28;1556;-90
2022/05/16 00:45:08;;;;;;;5.30;2.77;;;;;;;;;;521840;28;1353;-91
2022/05/16 00:45:24;;;;;;;5.20;2.70;;;;;;;;;;523828;28;1226;-89
2022/05/16 00:45:40;;;;;;;4.82;2.60;;;;;;;;;;521795;28;1579;-89
2022/05/16 00:45:56;;;;;;;5.53;2.60;;;;;;;;;;523645;28;1369;-90
2022/05/16 00:46:13;;;;;;;5.05;2.50;;;;;;;;;;522521;28;1541;-90
2022/05/16 00:46:31;;;;;;;4.30;2.58;;;;;;;;;;524578;28;1523;-89
2022/05/16 00:46:48;;;;;;;3.70;2.70;;;;;;;;;;521956;28;1245;-89
2022/05/16 00:47:04;;;;;;;4.63;2.75;;;;;;;;;;522716;28;1668;-88
2022/05/16 00:47:20;;;;;;;4.57;2.60;;;;;;;;;;523281;28;1428;-91
2022/05/16 00:47:35;;;;;;;5.05;2.70;;;;;;;;;;523387;28;1298;-91
2022/05/16 00:47:51;;;;;;;4.93;2.70;;;;;;;;;;523827;28;1038;-90
2022/05/16 00:48:07;;;;;;;3.67;2.60;;;;;;;;;;522178;28;1855;-89
2022/05/16 00:48:22;;;;;;;3.53;2.50;;;;;;;;;;522843;28;1337;-89
2022/05/16 00:48:37;;;;;;;4.10;2.50;;;;;;;;;;523233;28;1728;-89
2022/05/16 00:48:53;;;;;;;4.07;2.60;;;;;;;;;;522379;28;1477;-90
2022/05/16 00:49:13;;;;;;;4.30;2.78;;;;;;;;;;524252;28;1417;-90
2022/05/16 00:49:33;;;;;;;5.82;2.90;;;;;;;;;;525445;28;1512;-90
2022/05/16 00:49:51;;;;;;;5.15;2.75;;;;;;;;;;527897;28;1539;-90
2022/05/16 00:50:08;;;;;;;4.30;2.70;;;;;;;;;;526130;28;1376;-89
2022/05/16 00:50:26;;;;;;;4.57;2.90;;;;;;;;;;525999;28;1305;-91
2022/05/16 00:50:42;;;;;;;4.25;2.85;;;;;;;;;;524132;28;867;-90
2022/05/16 00:50:58;;;;;;;3.97;2.60;;;;;;;;;;524491;28;1284;-90
2022/05/16 00:51:19;;;;;;;5.32;2.70;;;;;;;;;;524144;28;1390;-90
2022/05/16 00:51:46;;;;;;;4.95;2.70;;;;;;;;;;523840;28;1348;-90
2022/05/16 00:52:05;;;;;;;4.22;2.65;;;;;;;;;;524771;28;1481;-89
2022/05/16 00:52:23;;;;;;;4.30;2.58;;;;;;;;;;521869;28;1499;-90
2022/05/16 00:52:48;;;;;;;4.28;2.70;;;;;;;;;;520750;28;1418;-91
2022/05/16 00:53:03;;;;;;;3.88;2.60;;;;;;;;;;518562;28;1608;-90
2022/05/16 00:53:18;;;;;;;4.20;2.78;;;;;;;;;;519675;28;1163;-88
2022/05/16 00:53:34;;;;;;;4.23;2.93;;;;;;;;;;521800;28;1349;-90
2022/05/16 00:53:55;;;;;;;4.63;2.92;;;;;;;;;;520059;28;1180;-89
2022/05/16 00:54:31;;;;;;;4.68;2.97;;;;;;;;;;521979;28;1580;-90
2022/05/16 00:55:03;;;;;;;4.55;2.70;;;;;;;;;;525279;28;1491;-88
2022/05/16 00:55:22;;;;;;;5.90;3.20;;;;;;;;;;524822;28;1263;-90
2022/05/16 00:55:38;;;;;;;4.68;3.00;;;;;;;;;;525673;28;1657;-90
2022/05/16 00:55:53;;;;;;;6.20;2.90;;;;;;;;;;523993;28;1280;-90
2022/05/16 00:56:09;;;;;;;6.73;3.13;;;;;;;;;;522128;28;1263;-90
2022/05/16 00:56:27;;;;;;;5.03;3.13;;;;;;;;;;519968;28;1198;-90
2022/05/16 00:56:44;;;;;;;4.50;2.90;;;;;;;;;;519291;28;1694;-90
2022/05/16 00:57:12;;;;;;;4.55;3.00;;;;;;;;;;519465;28;1514;-90
2022/05/16 00:57:34;;;;;;;5.45;2.95;;;;;;;;;;520110;28;1458;-90
2022/05/16 00:58:03;;;;;;;4.60;2.88;;;;;;;;;;522309;28;1532;-90
2022/05/16 00:58:19;;;;;;;4.25;2.88;;;;;;;;;;524576;28;1968;-90
2022/05/16 00:58:38;;;;;;;4.15;2.72;;;;;;;;;;525352;28;1233;-90
2022/05/16 00:58:55;;;;;;;5.18;2.63;;;;;;;;;;526723;28;1266;-91
2022/05/16 00:59:10;;;;;;;5.88;2.80;;;;;;;;;;528361;28;1340;-91
2022/05/16 00:59:34;;;;;;;4.68;2.78;;;;;;;;;;524942;28;1922;-90
2022/05/16 00:59:58;;;;;;;4.65;2.75;;;;;;;;;;524555;28;1570;-90
2022/05/16 01:00:21;;;;;;;4.68;2.75;;;;;;;;;;525755;28;1548;-90
2022/05/16 01:00:39;;;;;;;5.70;2.70;;;;;;;;;;525760;28;1428;-90
2022/05/16 01:00:55;;;;;;;5.35;2.72;;;;;;;;;;525937;28;1484;-90
2022/05/16 01:04:58;;;;;;;5.55;2.90;;;;;;;;;;520578;28;697;-89
2022/05/16 01:05:13;;;;;;;6.07;3.08;;;;;;;;;;518854;28;1443;-89
2022/05/16 01:05:29;;;;;;;5.70;3.17;;;;;;;;;;518147;28;1530;-90
2022/05/16 01:05:45;;;;;;;5.43;3.00;;;;;;;;;;524835;28;1429;-90
2022/05/16 01:06:00;;;;;;;4.65;3.00;;;;;;;;;;523091;28;1420;-90
2022/05/16 01:06:16;;;;;;;4.30;3.00;;;;;;;;;;521669;28;1403;-89
2022/05/16 01:06:31;;;;;;;4.43;2.80;;;;;;;;;;522194;28;816;-91
2022/05/16 01:06:47;;;;;;;4.93;2.92;;;;;;;;;;522069;28;1319;-90
2022/05/16 01:07:04;;;;;;;5.47;3.00;;;;;;;;;;522239;28;1190;-90
2022/05/16 01:07:29;;;;;;;6.40;3.00;;;;;;;;;;521926;28;1517;-90
2022/05/16 01:07:45;;;;;;;6.45;3.10;;;;;;;;;;522565;28;1507;-90
2022/05/16 01:08:10;;;;;;;5.57;3.03;;;;;;;;;;523501;28;1429;-90
2022/05/16 01:08:28;;;;;;;5.57;3.10;;;;;;;;;;525851;28;1358;-91
2022/05/16 01:08:45;;;;;;;5.55;2.90;;;;;;;;;;525223;28;1567;-90
2022/05/16 01:09:00;;;;;;;4.85;3.00;;;;;;;;;;522575;28;1520;-90
2022/05/16 01:09:16;;;;;;;4.75;3.05;;;;;;;;;;522481;28;1693;-91
2022/05/16 01:09:31;;;;;;;5.10;3.03;;;;;;;;;;520939;28;1286;-91
2022/05/16 01:09:47;;;;;;;4.93;2.80;;;;;;;;;;521820;28;1183;-90
2022/05/16 01:10:05;;;;;;;5.27;2.80;;;;;;;;;;520030;28;1516;-90
2022/05/16 01:10:21;;;;;;;5.35;2.88;;;;;;;;;;518412;28;1443;-89
2022/05/16 01:10:37;;;;;;;4.40;2.70;;;;;;;;;;521347;28;1426;-90
2022/05/16 01:11:00;;;;;;;5.97;2.92;;;;;;;;;;521539;28;1374;-90
2022/05/16 01:11:15;;;;;;;5.53;2.88;;;;;;;;;;523068;28;1382;-89
2022/05/16 01:11:31;;;;;;;4.55;2.90;;;;;;;;;;523489;28;1578;-90
2022/05/16 01:11:47;;;;;;;4.90;3.00;;;;;;;;;;522942;28;1514;-90
2022/05/16 01:12:03;;;;;;;4.60;3.00;;;;;;;;;;522113;28;1189;-90
2022/05/16 01:12:19;;;;;;;4.38;2.90;;;;;;;;;;518412;28;1651;-89
2022/05/16 01:12:38;;;;;;;4.10;2.90;;;;;;;;;;519788;28;1269;-90
2022/05/16 01:12:54;;;;;;;3.60;2.80;;;;;;;;;;519534;28;1470;-90
2022/05/16 01:13:10;;;;;;;4.22;2.95;;;;;;;;;;521934;28;1420;-90
2022/05/16 01:13:28;;;;;;;4.70;2.90;;;;;;;;;;521798;28;1219;-89
2022/05/16 01:13:44;;;;;;;4.57;2.80;;;;;;;;;;524101;28;1393;-90
2022/05/16 01:14:00;;;;;;;5.27;2.90;;;;;;;;;;525936;28;1613;-90
2022/05/16 01:14:39;;;;;;;6.05;2.95;;;;;;;;;;525341;28;1536;-90
2022/05/16 01:14:57;;;;;;;7.80;3.00;;;;;;;;;;526353;28;867;-90
2022/05/16 01:15:29;;;;;;;6.05;2.97;;;;;;;;;;524319;28;1159;-90
2022/05/16 01:15:49;;;;;;;5.18;2.75;;;;;;;;;;525147;28;1536;-88
2022/05/16 01:16:05;;;;;;;4.78;2.60;;;;;;;;;;524004;28;1273;-90
2022/05/16 01:16:22;;;;;;;4.95;2.70;;;;;;;;;;524061;28;852;-90
2022/05/16 01:16:38;;;;;;;5.80;2.88;;;;;;;;;;521900;28;1469;-91
2022/05/16 01:16:53;;;;;;;5.07;3.00;;;;;;;;;;519611;28;1561;-90
2022/05/16 01:17:09;;;;;;;5.15;3.00;;;;;;;;;;521069;28;1658;-90
2022/05/16 01:17:24;;;;;;;5.87;3.00;;;;;;;;;;521171;28;1545;-90
2022/05/16 01:17:40;;;;;;;6.90;2.85;;;;;;;;;;521186;28;1324;-90
2022/05/16 01:17:55;;;;;;;6.23;2.87;;;;;;;;;;521729;28;1156;-90
2022/05/16 01:18:14;;;;;;;4.38;2.97;;;;;;;;;;521587;28;1222;-90
2022/05/16 01:18:30;;;;;;;6.80;3.00;;;;;;;;;;520593;28;1544;-90
2022/05/16 01:18:46;;;;;;;6.40;2.90;;;;;;;;;;522161;28;1273;-89
2022/05/16 01:19:01;;;;;;;4.23;3.00;;;;;;;;;;522202;28;804;-90
2022/05/16 01:19:17;;;;;;;5.35;2.88;;;;;;;;;;522228;28;1374;-90
2022/05/16 01:19:32;;;;;;;5.80;2.70;;;;;;;;;;522816;28;1922;-90
2022/05/16 01:19:48;;;;;;;4.70;2.72;;;;;;;;;;522126;28;1336;-89
2022/05/16 01:20:06;;;;;;;4.97;2.65;;;;;;;;;;521825;28;1519;-90
2022/05/16 01:20:23;;;;;;;5.85;2.92;;;;;;;;;;522107;28;1271;-90
2022/05/16 01:20:56;;;;;;;6.20;3.15;;;;;;;;;;524038;28;1353;-90
2022/05/16 01:21:33;;;;;;;5.72;2.90;;;;;;;;;;522012;28;1203;-89
2022/05/16 01:21:48;;;;;;;5.20;2.55;;;;;;;;;;522964;28;1565;-89
2022/05/16 01:22:17;;;;;;;4.90;2.80;;;;;;;;;;523404;28;1486;-90
2022/05/16 01:22:37;;;;;;;5.25;2.60;;;;;;;;;;523479;28;1476;-89
2022/05/16 01:22:53;;;;;;;5.47;2.42;;;;;;;;;;523980;28;939;-90
2022/05/16 01:23:08;;;;;;;4.80;2.43;;;;;;;;;;524983;28;1656;-89
2022/05/16 01:23:26;;;;;;;5.47;2.70;;;;;;;;;;526057;28;931;-90
2022/05/16 01:24:10;;;;;;;5.10;2.63;;;;;;;;;;526953;28;1573;-88
2022/05/16 01:24:26;;;;;;;5.53;2.85;;;;;;;;;;523714;28;1439;-90
2022/05/16 01:24:42;;;;;;;4.63;2.70;;;;;;;;;;523742;28;1204;-90
2022/05/16 01:25:04;;;;;;;4.10;2.80;;;;;;;;;;522010;28;1242;-90
2022/05/16 01:25:27;;;;;;;5.30;2.92;;;;;;;;;;521896;28;1524;-88
2022/05/16 01:25:42;;;;;;;6.93;2.90;;;;;;;;;;520955;28;1310;-90
2022/05/16 01:25:59;;;;;;;6.87;2.80;;;;;;;;;;519203;28;1446;-91
2022/05/16 01:26:21;;;;;;;5.60;2.70;;;;;;;;;;520255;28;867;-90
2022/05/16 01:26:37;;;;;;;4.82;2.70;;;;;;;;;;523007;28;987;-90
2022/05/16 01:26:52;;;;;;;4.20;2.70;;;;;;;;;;523045;28;1239;-90
2022/05/16 01:27:08;;;;;;;3.58;2.80;;;;;;;;;;522761;28;1817;-90
2022/05/16 01:27:23;;;;;;;4.77;2.87;;;;;;;;;;522889;28;1456;-90
2022/05/16 01:27:50;;;;;;;5.28;3.00;;;;;;;;;;521923;28;1411;-89
2022/05/16 01:28:05;;;;;;;5.43;3.10;;;;;;;;;;524150;28;932;-90
2022/05/16 01:28:23;;;;;;;5.57;3.00;;;;;;;;;;521111;28;1630;-89
2022/05/16 01:28:39;;;;;;;6.00;3.00;;;;;;;;;;523714;28;1482;-90
2022/05/16 01:28:55;;;;;;;6.10;3.10;;;;;;;;;;522654;28;1305;-90
2022/05/16 01:29:11;;;;;;;5.70;3.10;;;;;;;;;;520045;28;1640;-90
2022/05/16 01:29:26;;;;;;;5.72;3.20;;;;;;;;;;521285;28;1204;-90
2022/05/16 01:29:42;;;;;;;5.30;3.07;;;;;;;;;;518122;28;1443;-90
2022/05/16 01:29:58;;;;;;;5.80;3.03;;;;;;;;;;518311;28;1415;-89
2022/05/16 01:30:19;;;;;;;5.53;3.20;;;;;;;;;;523525;28;1174;-89
2022/05/16 01:30:39;;;;;;;4.00;3.05;;;;;;;;;;522614;28;1543;-89
2022/05/16 01:30:55;;;;;;;3.42;2.70;;;;;;;;;;522763;28;1282;-88
2022/05/16 01:31:10;;;;;;;3.87;2.87;;;;;;;;;;524071;28;979;-90
2022/05/16 01:31:26;;;;;;;5.63;2.90;;;;;;;;;;523749;28;1610;-90
2022/05/16 01:31:42;;;;;;;6.37;2.90;;;;;;;;;;523972;28;1213;-88
2022/05/16 01:31:58;;;;;;;4.93;2.90;;;;;;;;;;521918;28;1479;-89
2022/05/16 01:32:13;;;;;;;5.10;2.97;;;;;;;;;;522930;28;1580;-89
2022/05/16 01:32:29;;;;;;;5.18;3.20;;;;;;;;;;524729;28;1480;-90
2022/05/16 01:32:44;;;;;;;4.70;3.10;;;;;;;;;;523984;28;1543;-90
2022/05/16 01:33:00;;;;;;;4.63;3.20;;;;;;;;;;523260;28;1278;-90
2022/05/16 01:33:17;;;;;;;4.75;3.22;;;;;;;;;;522026;28;1386;-90
2022/05/16 01:33:32;;;;;;;5.05;3.03;;;;;;;;;;521969;28;1366;-90
2022/05/16 01:33:48;;;;;;;6.82;3.08;;;;;;;;;;522087;28;1277;-89
2022/05/16 01:34:04;;;;;;;6.32;3.10;;;;;;;;;;522377;28;796;-90
2022/05/16 01:34:19;;;;;;;4.97;3.10;;;;;;;;;;519921;28;1283;-89
2022/05/16 01:34:35;;;;;;;5.20;3.10;;;;;;;;;;521192;28;1818;-89
2022/05/16 01:34:51;;;;;;;4.25;2.78;;;;;;;;;;521721;28;1183;-89
2022/05/16 01:35:07;;;;;;;4.43;2.80;;;;;;;;;;522102;28;1269;-89
2022/05/16 01:35:31;;;;;;;5.10;2.88;;;;;;;;;;521628;28;1564;-89
2022/05/16 01:35:47;;;;;;;6.18;2.90;;;;;;;;;;522358;28;1113;-89
2022/05/16 01:36:03;;;;;;;5.75;2.80;;;;;;;;;;521888;28;1061;-90
2022/05/16 01:36:19;;;;;;;3.95;2.70;;;;;;;;;;519879;28;1196;-90
2022/05/16 01:36:34;;;;;;;4.82;2.90;;;;;;;;;;519927;28;1532;-89
2022/05/16 01:36:50;;;;;;;5.43;3.00;;;;;;;;;;519859;28;1149;-89
2022/05/16 01:37:06;;;;;;;5.22;2.90;;;;;;;;;;521116;28;1576;-90
2022/05/16 01:38:18;;;;;;;5.57;2.95;;;;;;;;;;521624;28;1489;-89
2022/05/16 01:38:35;;;;;;;4.60;3.10;;;;;;;;;;525438;28;1370;-89
2022/05/16 01:38:52;;;;;;;6.35;3.30;;;;;;;;;;524793;28;1594;-89
2022/05/16 01:39:07;;;;;;;7.07;3.20;;;;;;;;;;524929;28;1519;-89
2022/05/16 01:39:22;;;;;;;6.90;2.97;;;;;;;;;;522951;28;1434;-88
2022/05/16 01:39:38;;;;;;;6.38;3.05;;;;;;;;;;523699;28;1939;-89
2022/05/16 01:39:53;;;;;;;5.37;3.00;;;;;;;;;;521888;28;1151;-90
2022/05/16 01:40:09;;;;;;;5.03;2.97;;;;;;;;;;519975;28;1306;-90
2022/05/16 01:40:27;;;;;;;5.10;3.03;;;;;;;;;;517802;28;1359;-90
2022/05/16 01:40:43;;;;;;;4.65;2.92;;;;;;;;;;518743;28;947;-90
2022/05/16 01:41:00;;;;;;;4.75;3.10;;;;;;;;;;519940;28;1565;-88
2022/05/16 01:41:19;;;;;;;5.38;3.30;;;;;;;;;;520902;28;876;-90
2022/05/16 01:41:34;;;;;;;4.63;3.08;;;;;;;;;;521877;28;995;-89
2022/05/16 01:41:49;;;;;;;5.00;2.97;;;;;;;;;;521296;28;1020;-88
2022/05/16 01:42:05;;;;;;;5.22;2.95;;;;;;;;;;525030;28;1638;-90
2022/05/16 01:42:20;;;;;;;4.70;3.13;;;;;;;;;;525955;28;1150;-89
2022/05/16 01:42:36;;;;;;;4.57;3.17;;;;;;;;;;523807;28;1345;-89
2022/05/16 01:42:51;;;;;;;4.63;3.00;;;;;;;;;;523949;28;804;-91
2022/05/16 01:43:08;;;;;;;5.47;3.07;;;;;;;;;;521980;28;1262;-89
2022/05/16 01:43:29;;;;;;;6.32;3.10;;;;;;;;;;522022;28;808;-90
2022/05/16 01:43:48;;;;;;;5.45;3.10;;;;;;;;;;522075;28;2128;-89
2022/05/16 01:44:04;;;;;;;4.32;2.90;;;;;;;;;;521880;28;1493;-90
2022/05/16 01:44:19;;;;;;;5.30;2.95;;;;;;;;;;523651;28;1164;-89
2022/05/16 01:44:34;;;;;;;5.90;2.92;;;;;;;;;;523692;28;1392;-90
2022/05/16 01:44:50;;;;;;;5.77;3.00;;;;;;;;;;523931;28;911;-89
2022/05/16 01:45:06;;;;;;;5.40;2.93;;;;;;;;;;523664;28;1256;-90
2022/05/16 01:45:21;;;;;;;5.10;2.90;;;;;;;;;;523968;28;1009;-90
2022/05/16 01:45:39;;;;;;;4.25;3.03;;;;;;;;;;521707;28;1104;-89
2022/05/16 01:45:55;;;;;;;4.53;2.90;;;;;;;;;;521704;28;1211;-89
2022/05/16 01:46:12;;;;;;;5.45;3.00;;;;;;;;;;522156;28;1255;-89
2022/05/16 01:46:33;;;;;;;5.70;3.00;;;;;;;;;;521708;28;1240;-89
2022/05/16 01:46:48;;;;;;;5.47;2.97;;;;;;;;;;521673;28;1402;-89
2022/05/16 01:47:04;;;;;;;6.50;2.90;;;;;;;;;;523400;28;1281;-90
2022/05/16 01:47:19;;;;;;;5.63;2.90;;;;;;;;;;522270;28;1057;-90
2022/05/16 01:47:35;;;;;;;5.00;3.10;;;;;;;;;;522971;28;1532;-89
2022/05/16 01:47:50;;;;;;;4.85;3.30;;;;;;;;;;522935;28;1348;-88
2022/05/16 01:48:06;;;;;;;4.23;3.03;;;;;;;;;;522658;28;1231;-89
2022/05/16 01:48:22;;;;;;;4.40;2.90;;;;;;;;;;521243;28;1501;-88
2022/05/16 01:48:38;;;;;;;5.00;2.92;;;;;;;;;;521086;28;1473;-88
2022/05/16 01:48:54;;;;;;;5.07;3.08;;;;;;;;;;519518;28;1863;-89
2022/05/16 01:49:10;;;;;;;5.53;3.00;;;;;;;;;;519263;28;1269;-90
2022/05/16 01:49:26;;;;;;;5.93;3.20;;;;;;;;;;518370;28;1056;-88
2022/05/16 01:49:41;;;;;;;5.40;3.00;;;;;;;;;;517994;28;1653;-89
2022/05/16 01:49:57;;;;;;;5.82;2.90;;;;;;;;;;516670;28;1820;-88
2022/05/16 01:50:12;;;;;;;6.63;3.00;;;;;;;;;;517033;28;776;-89